Time;durP1;ratioP1;P1;durP2;ratioP2;P2;SDS_P1;SDS_P2;PMS_P1;PMS_P2;Temp;Humidity;BMP_temperature;BMP_pressure;BME280_temperature;BME280_humidity;BME280_pressure;Samples;Min_cycle;Max_cycle;Signal;HPM_P1;HPM_P2
2021/03/21 00:01:35;;;;;;;19.95;9.05;;;;;;;-2.24;82.86;99591.09;1736329;82;21188;-75
2021/03/21 00:04:02;;;;;;;21.12;9.45;;;;;;;-2.28;82.89;99588.58;1736209;82;21737;-75
2021/03/21 00:06:30;;;;;;;19.23;9.30;;;;;;;-2.31;82.89;99589.03;1734996;82;21105;-74
2021/03/21 00:08:59;;;;;;;17.40;8.75;;;;;;;-2.34;82.95;99584.15;1734983;82;21109;-75
2021/03/21 00:11:27;;;;;;;21.12;9.80;;;;;;;-2.37;83.04;99589.46;1722330;82;21175;-75
2021/03/21 00:13:54;;;;;;;18.65;10.03;;;;;;;-2.42;83.11;99582.61;1734702;82;21176;-75
2021/03/21 00:16:21;;;;;;;21.02;10.30;;;;;;;-2.47;83.29;99581.66;1734895;82;22603;-75
2021/03/21 00:18:49;;;;;;;17.87;9.03;;;;;;;-2.50;83.42;99585.62;1735318;82;20950;-74
2021/03/21 00:21:17;;;;;;;21.25;9.80;;;;;;;-2.53;84.14;99578.02;1735443;82;21560;-74
2021/03/21 00:23:44;;;;;;;18.77;9.73;;;;;;;-2.56;84.14;99583.04;1741924;82;21477;-75
2021/03/21 00:26:12;;;;;;;19.95;9.35;;;;;;;-2.59;84.18;99578.12;1729598;83;21485;-75
2021/03/21 00:28:40;;;;;;;20.48;9.75;;;;;;;-2.62;84.28;99578.05;1750092;82;21390;-75
2021/03/21 00:31:10;;;;;;;18.73;9.45;;;;;;;-2.63;84.40;99580.45;1729573;83;21021;-74
2021/03/21 00:33:38;;;;;;;21.80;10.18;;;;;;;-2.66;84.32;99580.38;1750095;81;21453;-75
2021/03/21 00:36:09;;;;;;;17.12;8.90;;;;;;;-2.67;84.38;99580.61;1729533;83;21144;-75
2021/03/21 00:38:41;;;;;;;;;;;;;;;-2.69;84.38;99573.30;1752691;82;21065;-75
2021/03/21 00:41:10;;;;;;;13.93;7.97;;;;;;;-2.72;84.28;99574.58;1749528;81;21378;-74
2021/03/21 00:43:37;;;;;;;13.72;6.90;;;;;;;-2.76;84.40;99574.73;1729510;83;21589;-75
2021/03/21 00:46:05;;;;;;;14.95;8.28;;;;;;;-2.79;84.39;99579.22;1749924;81;21156;-75
2021/03/21 00:48:37;;;;;;;12.93;7.00;;;;;;;-2.84;84.58;99573.71;1729585;83;21092;-75
2021/03/21 00:51:06;;;;;;;17.12;8.78;;;;;;;-2.88;84.89;99572.52;1750452;82;21144;-74
2021/03/21 00:53:33;;;;;;;18.20;8.88;;;;;;;-2.90;85.13;99575.17;1729416;83;22233;-75
2021/03/21 00:56:00;;;;;;;15.55;8.65;;;;;;;-2.92;85.16;99570.55;1749928;81;21192;-75
2021/03/21 00:58:28;;;;;;;14.58;7.80;;;;;;;-2.94;85.13;99567.27;1721057;83;21517;-75
2021/03/21 01:00:59;;;;;;;17.57;8.40;;;;;;;-2.95;85.43;99569.66;1700325;84;21133;-75
2021/03/21 01:03:27;;;;;;;15.90;8.00;;;;;;;-2.95;85.64;99570.48;1700641;83;21569;-75
2021/03/21 01:05:59;;;;;;;16.15;7.20;;;;;;;-2.95;85.73;99564.29;1700511;83;21596;-75
2021/03/21 01:08:37;;;;;;;20.55;9.73;;;;;;;-2.96;85.99;99568.02;1700491;83;21640;-75
2021/03/21 01:11:13;;;;;;;17.77;8.10;;;;;;;-2.96;86.13;99566.16;1700549;83;21184;-75
2021/03/21 01:13:40;;;;;;;18.35;8.38;;;;;;;-2.97;86.12;99562.35;1725693;83;21097;-75
2021/03/21 01:16:16;;;;;;;17.82;9.15;;;;;;;-2.97;86.23;99560.48;1747762;82;21494;-75
2021/03/21 01:18:44;;;;;;;19.70;9.10;;;;;;;-2.95;86.77;99559.73;1700184;84;21225;-75
2021/03/21 01:21:12;;;;;;;18.55;8.18;;;;;;;-2.94;86.73;99557.34;1730300;82;21147;-75
2021/03/21 01:23:41;;;;;;;17.35;8.43;;;;;;;-2.93;86.63;99554.14;1700444;84;21113;-75
2021/03/21 01:26:14;;;;;;;16.48;8.28;;;;;;;-2.94;86.49;99554.66;1718015;83;21069;-75
2021/03/21 01:28:42;;;;;;;19.37;8.88;;;;;;;-2.95;86.38;99556.23;1686930;84;20938;-75
2021/03/21 01:31:13;;;;;;;20.08;8.35;;;;;;;-2.96;86.39;99551.38;1747939;82;21579;-75
2021/03/21 01:33:40;;;;;;;16.80;8.98;;;;;;;-2.97;86.26;99549.74;1700555;84;21616;-75
2021/03/21 01:36:21;;;;;;;18.27;8.80;;;;;;;-3.00;86.15;99544.83;1747864;82;21058;-75
2021/03/21 01:38:50;;;;;;;17.95;8.78;;;;;;;-3.03;86.12;99543.94;1724795;83;21064;-75
2021/03/21 01:41:33;;;;;;;17.70;9.75;;;;;;;-3.05;86.19;99544.69;1746445;82;21477;-75
2021/03/21 01:44:03;;;;;;;17.02;8.03;;;;;;;-3.08;86.17;99544.62;1746238;81;21372;-74
2021/03/21 01:46:45;;;;;;;16.65;8.98;;;;;;;-3.10;86.29;99544.03;1746356;81;21084;-75
2021/03/21 01:49:23;;;;;;;18.60;8.63;;;;;;;-3.10;86.61;99545.89;1728258;82;21520;-74
2021/03/21 01:51:51;;;;;;;18.85;8.45;;;;;;;-3.09;86.55;99544.84;1727769;83;21153;-74
2021/03/21 01:54:20;;;;;;;17.62;8.55;;;;;;;-3.11;86.39;99543.73;1727899;82;21212;-74
2021/03/21 01:56:48;;;;;;;18.67;9.38;;;;;;;-3.14;86.26;99545.52;1705431;83;21197;-75
2021/03/21 01:59:20;;;;;;;20.05;8.18;;;;;;;-3.16;86.45;99542.77;1727806;82;21136;-75
2021/03/21 02:01:48;;;;;;;16.20;7.97;;;;;;;-3.18;86.63;99535.46;1729180;83;21062;-75
2021/03/21 02:04:17;;;;;;;16.77;8.43;;;;;;;-3.18;86.66;99529.57;1747777;82;21149;-75
2021/03/21 02:07:08;;;;;;;19.25;9.38;;;;;;;-3.21;86.46;99530.02;1700524;84;21018;-75
2021/03/21 02:09:56;;;;;;;16.52;8.13;;;;;;;-3.23;86.55;99529.95;1747870;82;21230;-75
2021/03/21 02:13:01;;;;;;;13.70;7.60;;;;;;;-3.28;86.45;99525.78;1700536;84;21222;-75
2021/03/21 02:15:51;;;;;;;15.18;7.87;;;;;;;-3.32;86.52;99536.16;1748027;82;21470;-75
2021/03/21 02:18:41;;;;;;;16.25;8.45;;;;;;;-3.38;86.94;99539.73;1700555;84;21093;-75
2021/03/21 02:21:26;;;;;;;18.42;8.15;;;;;;;-3.39;87.02;99532.20;1747926;82;21077;-75
2021/03/21 02:24:33;;;;;;;17.90;8.75;;;;;;;-3.44;86.86;99528.03;1700427;84;21873;-75
2021/03/21 02:27:26;;;;;;;21.20;8.78;;;;;;;-3.50;86.75;99526.80;1718109;83;21105;-74
2021/03/21 02:30:15;;;;;;;18.50;8.43;;;;;;;-3.60;86.57;99530.02;1700482;84;21097;-76
2021/03/21 02:33:07;;;;;;;17.57;8.93;;;;;;;-3.70;86.59;99525.69;1718279;83;21500;-74
2021/03/21 02:35:57;;;;;;;17.67;8.73;;;;;;;-3.78;86.68;99526.80;1700694;84;21132;-74
2021/03/21 02:38:33;;;;;;;16.23;8.05;;;;;;;-3.86;86.77;99520.91;1718297;83;21577;-74
2021/03/21 02:41:18;;;;;;;19.82;9.68;;;;;;;-3.94;86.89;99527.91;1700327;84;21592;-74
2021/03/21 02:43:52;;;;;;;16.62;8.93;;;;;;;-4.00;87.05;99521.05;1717966;83;21046;-75
2021/03/21 02:46:24;;;;;;;20.32;9.58;;;;;;;-4.06;87.29;99521.96;1700486;84;21095;-75
2021/03/21 02:49:14;;;;;;;24.63;9.98;;;;;;;-4.08;87.57;99516.00;1718354;83;20939;-75
2021/03/21 02:51:45;;;;;;;19.17;9.00;;;;;;;-4.06;87.79;99515.26;1700430;84;21170;-75
2021/03/21 02:54:27;;;;;;;20.17;9.15;;;;;;;-4.06;87.89;99510.41;1717986;83;21335;-74
2021/03/21 02:57:09;;;;;;;20.80;8.58;;;;;;;-4.05;88.16;99516.08;1714476;83;21184;-74
2021/03/21 02:59:39;;;;;;;;;;;;;;;-4.06;88.23;99509.89;1721179;83;21014;-75
2021/03/21 03:02:12;;;;;;;20.70;9.20;;;;;;;-4.06;88.33;99508.55;1728838;83;20227;-74
2021/03/21 03:04:47;;;;;;;19.35;8.60;;;;;;;-4.04;88.48;99505.63;1746943;82;21285;-75
2021/03/21 03:07:28;;;;;;;18.77;8.95;;;;;;;-4.05;88.36;99504.83;1699982;84;21683;-75
2021/03/21 03:10:04;;;;;;;19.65;9.28;;;;;;;-4.08;88.30;99502.59;1747496;82;21148;-75
2021/03/21 03:12:37;;;;;;;23.83;11.05;;;;;;;-4.07;88.37;99495.37;1700146;84;21172;-75
2021/03/21 03:15:08;;;;;;;23.05;9.85;;;;;;;-4.04;88.50;99490.87;1747986;82;21605;-74
2021/03/21 03:17:43;;;;;;;13.75;7.35;;;;;;;-4.02;88.42;99492.81;1700430;84;21210;-74
2021/03/21 03:20:42;;;;;;;19.87;10.20;;;;;;;-4.02;88.44;99485.59;1746444;82;21128;-75
2021/03/21 03:23:38;;;;;;;21.27;9.60;;;;;;;-3.97;88.45;99490.80;1700485;84;21104;-75
2021/03/21 03:26:20;;;;;;;21.93;9.95;;;;;;;-3.96;88.43;99488.42;1717813;83;21013;-75
2021/03/21 03:29:11;;;;;;;17.50;9.03;;;;;;;-3.94;88.35;99484.48;1700614;84;21129;-75
2021/03/21 03:31:46;;;;;;;21.68;10.25;;;;;;;-3.91;88.27;99485.38;1695146;84;21608;-74
2021/03/21 03:34:14;;;;;;;19.12;9.63;;;;;;;-3.90;88.24;99486.19;1717555;83;21231;-74
2021/03/21 03:36:42;;;;;;;23.35;10.72;;;;;;;-3.89;88.18;99479.78;1700590;84;21510;-74
2021/03/21 03:39:09;;;;;;;21.02;10.85;;;;;;;-3.90;88.09;99481.64;1718111;83;21501;-73
2021/03/21 03:42:23;;;;;;;22.40;10.93;;;;;;;-3.89;88.00;99482.47;1729038;82;21156;-74
2021/03/21 03:45:17;;;;;;;20.77;11.12;;;;;;;-3.89;87.96;99479.78;1700621;84;21662;-74
2021/03/21 03:47:59;;;;;;;23.07;11.25;;;;;;;-3.90;87.84;99473.59;1747714;82;21077;-74
2021/03/21 03:50:53;;;;;;;15.97;7.70;;;;;;;-3.90;87.69;99475.46;1699939;84;21176;-74
2021/03/21 03:53:28;;;;;;;21.37;9.93;;;;;;;-3.91;87.60;99473.83;1747946;82;21057;-74
2021/03/21 03:56:03;;;;;;;20.85;9.80;;;;;;;-3.92;87.58;99468.16;1700440;84;21136;-75
2021/03/21 03:58:54;;;;;;;19.27;9.50;;;;;;;-3.94;87.62;99472.93;1747934;82;21416;-74
2021/03/21 04:01:44;;;;;;;24.75;9.85;;;;;;;-3.96;87.46;99475.02;1700413;84;21133;-74
2021/03/21 04:04:36;;;;;;;19.07;8.83;;;;;;;-4.00;87.39;99472.78;1747108;82;21188;-73
2021/03/21 04:07:25;;;;;;;19.82;8.93;;;;;;;-4.00;87.48;99473.30;1699495;84;21207;-73
2021/03/21 04:09:56;;;;;;;17.70;8.53;;;;;;;-3.99;87.67;99467.71;1750109;81;21172;-74
2021/03/21 04:12:34;;;;;;;20.40;9.37;;;;;;;-3.94;87.89;99470.25;1750381;82;22307;-73
2021/03/21 04:15:14;;;;;;;19.87;9.15;;;;;;;-3.90;87.93;99468.23;1749757;82;21148;-70
2021/03/21 04:17:59;;;;;;;18.95;9.43;;;;;;;-3.84;87.99;99466.52;1727676;82;21620;-71
2021/03/21 04:20:32;;;;;;;18.82;9.28;;;;;;;-3.77;88.11;99469.95;1749942;82;21052;-70
2021/03/21 04:23:11;;;;;;;21.60;9.83;;;;;;;-3.69;88.10;99466.44;1722183;82;21186;-69
2021/03/21 04:25:43;;;;;;;22.73;9.85;;;;;;;-3.62;88.04;99467.70;1719866;83;21820;-71
2021/03/21 04:28:21;;;;;;;19.20;9.38;;;;;;;-3.57;88.05;99467.84;1719900;83;21083;-73
2021/03/21 04:30:58;;;;;;;18.12;9.38;;;;;;;-3.50;87.95;99468.58;1720257;83;21530;-71
2021/03/21 04:33:36;;;;;;;18.50;9.28;;;;;;;-3.45;87.85;99467.34;1720172;83;21141;-70
2021/03/21 04:36:10;;;;;;;17.52;9.25;;;;;;;-3.38;87.80;99472.11;1720095;83;21185;-70
2021/03/21 04:38:44;;;;;;;20.50;9.83;;;;;;;-3.34;87.81;99467.92;1720213;83;21339;-71
2021/03/21 04:41:25;;;;;;;19.30;9.68;;;;;;;-3.29;87.75;99471.27;1719947;83;21193;-70
2021/03/21 04:44:06;;;;;;;17.62;9.75;;;;;;;-3.24;87.63;99470.06;1719942;83;21008;-70
2021/03/21 04:46:48;;;;;;;20.35;10.50;;;;;;;-3.19;87.47;99466.17;1720124;83;21173;-69
2021/03/21 04:49:19;;;;;;;22.40;9.75;;;;;;;-3.13;87.36;99467.13;1719719;83;21226;-70
2021/03/21 04:51:46;;;;;;;24.82;10.68;;;;;;;-3.05;87.65;99462.78;1720073;83;21354;-71
2021/03/21 04:54:21;;;;;;;18.27;9.33;;;;;;;-2.97;87.40;99468.34;1720070;83;21226;-70
2021/03/21 04:57:20;;;;;;;18.98;10.20;;;;;;;-2.91;86.97;99465.56;1715711;83;21091;-70
2021/03/21 04:59:49;;;;;;;22.30;10.85;;;;;;;-2.87;86.85;99466.70;1735561;82;21734;-70
2021/03/21 05:02:29;;;;;;;23.50;10.93;;;;;;;-2.80;86.70;99462.58;1716868;83;21557;-70
2021/03/21 05:05:08;;;;;;;23.47;11.28;;;;;;;-2.71;86.95;99456.63;1697794;83;21376;-70
2021/03/21 05:07:56;;;;;;;20.17;10.58;;;;;;;-2.63;86.61;99456.83;1719506;83;21037;-70
2021/03/21 05:10:35;;;;;;;22.22;10.45;;;;;;;-2.57;86.45;99463.95;1719430;83;21088;-70
2021/03/21 05:13:19;;;;;;;21.37;10.78;;;;;;;-2.51;86.29;99453.63;1719798;83;21481;-69
2021/03/21 05:15:55;;;;;;;22.17;11.18;;;;;;;-2.44;85.99;99452.98;1680330;84;21674;-69
2021/03/21 05:18:40;;;;;;;21.10;11.08;;;;;;;-2.36;86.11;99457.20;1718169;83;21293;-69
2021/03/21 05:21:27;;;;;;;21.70;11.35;;;;;;;-2.29;85.96;99459.21;1736392;81;21158;-70
2021/03/21 05:24:18;;;;;;;22.20;10.63;;;;;;;-2.22;85.65;99463.12;1698897;83;21746;-70
2021/03/21 05:26:54;;;;;;;18.57;9.65;;;;;;;-2.18;85.52;99448.98;1747097;82;21160;-70
2021/03/21 05:30:02;;;;;;;25.60;10.70;;;;;;;-2.13;85.57;99449.09;1719740;83;21052;-70
2021/03/21 05:32:30;;;;;;;23.65;12.58;;;;;;;-2.07;85.73;99453.53;1680429;85;21199;-70
2021/03/21 05:34:58;;;;;;;28.80;12.68;;;;;;;-2.00;85.38;99455.56;1719508;83;20986;-72
2021/03/21 05:38:22;;;;;;;25.72;12.78;;;;;;;-1.96;84.90;99464.52;1737438;82;21553;-72
2021/03/21 05:41:28;;;;;;;28.30;13.32;;;;;;;-1.95;84.81;99454.04;1749143;82;21204;-72
2021/03/21 05:44:04;;;;;;;28.47;14.50;;;;;;;-1.94;83.91;99463.75;1749346;82;21129;-69
2021/03/21 05:46:53;;;;;;;34.40;17.30;;;;;;;-1.96;83.99;99460.48;1749427;81;21269;-71
2021/03/21 05:50:11;;;;;;;36.20;16.97;;;;;;;-1.95;83.83;99461.59;1723348;82;21042;-72
2021/03/21 05:53:23;;;;;;;36.90;18.02;;;;;;;-1.95;83.47;99460.77;1749531;82;20990;-70
2021/03/21 05:56:34;;;;;;;35.23;15.93;;;;;;;-1.94;82.79;99461.06;1749311;82;21121;-71
2021/03/21 05:59:10;;;;;;;37.23;17.87;;;;;;;-1.97;82.82;99459.66;1749520;82;21073;-71
2021/03/21 06:02:08;;;;;;;37.40;19.15;;;;;;;-1.98;82.54;99468.78;1749378;82;21370;-73
2021/03/21 06:05:24;;;;;;;37.58;17.20;;;;;;;-2.00;82.51;99463.64;1749236;82;21144;-72
2021/03/21 06:08:23;;;;;;;43.15;21.52;;;;;;;-1.97;83.00;99468.26;1746704;82;20998;-72
2021/03/21 06:11:22;;;;;;;39.42;19.10;;;;;;;-1.96;82.55;99469.36;1746619;81;21073;-72
2021/03/21 06:14:26;;;;;;;45.03;20.95;;;;;;;-2.01;81.51;99460.66;1746416;82;21062;-71
2021/03/21 06:17:45;;;;;;;40.13;20.17;;;;;;;-2.07;81.45;99462.94;1746845;82;22225;-72
2021/03/21 06:20:31;;;;;;;42.50;21.20;;;;;;;-2.09;81.68;99450.78;1746311;82;21180;-71
2021/03/21 06:23:27;;;;;;;48.40;20.00;;;;;;;-2.05;81.25;99441.19;1740513;82;21196;-72
2021/03/21 06:26:20;;;;;;;53.78;23.90;;;;;;;-1.99;81.21;99441.59;1715911;83;21200;-71
2021/03/21 06:29:26;;;;;;;58.48;22.93;;;;;;;-1.89;81.11;99438.30;1694468;83;21135;-71
2021/03/21 06:32:28;;;;;;;57.05;23.52;;;;;;;-1.76;80.90;99438.86;1715953;83;21505;-72
2021/03/21 06:35:07;;;;;;;41.18;20.05;;;;;;;-1.63;80.15;99432.88;1694401;83;21736;-72
2021/03/21 06:38:14;;;;;;;37.35;18.95;;;;;;;-1.51;79.77;99429.09;1724228;82;21160;-72
2021/03/21 06:41:17;;;;;;;44.00;20.48;;;;;;;-1.39;78.69;99428.52;1738652;82;21169;-73
2021/03/21 06:44:23;;;;;;;52.00;21.45;;;;;;;-1.24;78.36;99424.48;1731000;81;21481;-72
2021/03/21 06:47:03;;;;;;;49.60;21.10;;;;;;;-1.04;77.76;99429.67;1735894;82;22283;-70
2021/03/21 06:49:59;;;;;;;44.03;19.98;;;;;;;-0.78;77.85;99416.63;1735674;82;21168;-70
2021/03/21 06:52:42;;;;;;;44.93;20.77;;;;;;;-0.56;76.40;99408.59;1735806;82;20989;-70
2021/03/21 06:55:19;;;;;;;36.90;18.80;;;;;;;-0.39;75.33;99404.81;1737182;82;21201;-70
2021/03/21 06:58:13;;;;;;;38.78;19.40;;;;;;;-0.28;75.14;99411.70;1739888;82;21176;-70
2021/03/21 07:01:07;;;;;;;34.35;17.37;;;;;;;-0.19;73.29;99400.78;1734715;82;21387;-71
2021/03/21 07:04:12;;;;;;;37.80;19.73;;;;;;;-0.21;72.46;99387.53;1736952;81;21572;-70
2021/03/21 07:07:26;;;;;;;36.33;18.98;;;;;;;-0.16;72.65;99375.46;1724495;82;21225;-73
2021/03/21 07:10:18;;;;;;;37.93;18.37;;;;;;;-0.06;72.21;99382.34;1735431;82;21200;-73
2021/03/21 07:13:10;;;;;;;33.67;18.42;;;;;;;0.08;71.84;99372.50;1745107;82;21133;-72
2021/03/21 07:16:19;;;;;;;38.63;20.30;;;;;;;0.19;70.53;99364.80;1718664;82;21820;-72
2021/03/21 07:19:21;;;;;;;41.18;20.02;;;;;;;0.31;70.67;99357.38;1744572;82;21190;-73
2021/03/21 07:22:27;;;;;;;38.73;17.87;;;;;;;0.60;68.50;99364.15;1720667;82;22464;-72
2021/03/21 07:25:39;;;;;;;39.10;19.50;;;;;;;0.81;67.31;99346.25;1746187;82;21698;-69
2021/03/21 07:28:43;;;;;;;30.00;16.02;;;;;;;1.00;66.95;99343.98;1703024;83;21164;-69
2021/03/21 07:31:48;;;;;;;31.10;16.42;;;;;;;1.42;63.15;99350.76;1702989;84;22674;-70
2021/03/21 07:34:42;;;;;;;28.10;16.25;;;;;;;1.43;60.48;99330.75;1672654;84;21176;-72
2021/03/21 07:37:30;;;;;;;33.25;16.23;;;;;;;1.27;60.01;99339.30;1687690;84;21195;-70
2021/03/21 07:40:23;;;;;;;29.42;16.40;;;;;;;1.53;60.23;99337.58;1702661;84;21160;-70
2021/03/21 07:43:05;;;;;;;;;;;;;;;1.98;59.59;99332.91;1705558;84;21156;-70
2021/03/21 07:45:59;;;;;;;40.52;20.10;;;;;;;2.46;58.43;99330.05;1654094;84;20980;-70
2021/03/21 07:49:06;;;;;;;29.72;15.68;;;;;;;2.77;58.22;99322.25;1672124;84;21572;-71
2021/03/21 07:51:49;;;;;;;25.45;14.95;;;;;;;3.12;54.81;99313.27;1701271;84;21195;-72
2021/03/21 07:54:38;;;;;;;26.10;13.85;;;;;;;3.41;53.97;99308.63;1745092;82;21161;-72
2021/03/21 07:57:29;;;;;;;23.22;14.60;;;;;;;3.63;51.67;99302.30;1745556;82;21223;-71
2021/03/21 08:00:00;;;;;;;26.45;13.20;;;;;;;3.75;50.99;99301.45;1745988;82;22679;-72
2021/03/21 08:02:31;;;;;;;24.00;13.80;;;;;;;3.86;47.53;99306.30;1742166;82;21196;-72
2021/03/21 08:05:06;;;;;;;23.27;13.15;;;;;;;3.79;48.22;99297.09;1745977;82;21137;-72
2021/03/21 08:07:36;;;;;;;23.77;12.65;;;;;;;3.70;47.61;99284.37;1745368;82;21125;-72
2021/03/21 08:10:21;;;;;;;26.55;13.55;;;;;;;3.59;48.28;99289.02;1745754;82;21204;-72
2021/03/21 08:13:00;;;;;;;25.08;14.23;;;;;;;3.50;48.17;99279.81;1733912;82;21838;-73
2021/03/21 08:15:30;;;;;;;24.20;12.88;;;;;;;3.56;49.19;99282.78;1732372;81;21184;-74
2021/03/21 08:18:02;;;;;;;23.25;14.47;;;;;;;3.66;48.03;99284.11;1746109;82;21149;-75
2021/03/21 08:20:34;;;;;;;27.73;14.13;;;;;;;3.65;48.00;99278.41;1746386;82;21161;-74
2021/03/21 08:23:29;;;;;;;21.97;12.33;;;;;;;3.72;48.28;99272.69;1743121;82;26688;-71
2021/03/21 08:26:00;;;;;;;24.77;14.47;;;;;;;3.92;48.70;99272.06;1731822;82;21220;-72
2021/03/21 08:28:36;;;;;;;27.43;15.63;;;;;;;4.34;47.80;99261.22;1745993;82;21616;-71
2021/03/21 08:31:08;;;;;;;22.35;13.30;;;;;;;4.73;48.11;99253.58;1741156;82;21129;-72
2021/03/21 08:33:40;;;;;;;23.02;11.45;;;;;;;5.07;46.58;99251.64;1732231;82;21188;-70
2021/03/21 08:36:25;;;;;;;19.40;11.38;;;;;;;5.25;44.22;99250.89;1705787;82;27127;-71
2021/03/21 08:39:22;;;;;;;20.15;11.40;;;;;;;5.20;41.45;99270.58;1703052;84;22218;-69
2021/03/21 08:41:55;;;;;;;23.62;11.97;;;;;;;4.83;41.97;99259.74;1702937;84;21208;-70
2021/03/21 08:44:36;;;;;;;22.17;12.05;;;;;;;4.55;43.08;99242.86;1702774;84;21207;-70
2021/03/21 08:47:04;;;;;;;20.20;11.30;;;;;;;4.49;43.66;99238.56;1703481;83;21211;-70
2021/03/21 08:49:38;;;;;;;16.15;9.48;;;;;;;4.53;44.35;99234.99;1703644;84;21152;-69
2021/03/21 08:52:08;;;;;;;22.50;11.05;;;;;;;4.72;41.28;99225.56;1702856;84;21390;-70
2021/03/21 08:54:39;;;;;;;18.45;10.18;;;;;;;4.70;40.65;99243.27;1703335;84;21243;-70
2021/03/21 08:57:14;;;;;;;15.32;8.75;;;;;;;4.55;41.28;99232.80;1703742;84;21619;-71
2021/03/21 08:59:44;;;;;;;17.45;8.43;;;;;;;4.43;41.25;99218.76;1703620;84;21160;-70
2021/03/21 09:02:18;;;;;;;15.90;8.93;;;;;;;4.40;40.37;99208.45;1703674;84;21500;-71
2021/03/21 09:05:06;;;;;;;14.00;7.58;;;;;;;4.33;40.73;99214.75;1702947;84;21400;-71
2021/03/21 09:07:37;;;;;;;17.42;8.88;;;;;;;4.40;39.33;99211.72;1707474;83;21700;-68
2021/03/21 09:10:13;;;;;;;17.12;9.73;;;;;;;4.63;40.51;99208.24;1719223;83;22449;-69
2021/03/21 09:13:03;;;;;;;18.57;9.53;;;;;;;4.98;41.16;99202.48;1719513;83;21107;-71
2021/03/21 09:15:36;;;;;;;21.40;9.18;;;;;;;5.29;39.88;99204.31;1718528;83;21209;-71
2021/03/21 09:18:19;;;;;;;25.37;10.63;;;;;;;5.43;40.00;99199.53;1723620;82;21491;-70
2021/03/21 09:21:04;;;;;;;16.32;9.40;;;;;;;5.41;41.42;99201.19;1728695;82;21204;-72
2021/03/21 09:23:51;;;;;;;19.30;11.10;;;;;;;5.57;40.95;99184.93;1728734;82;21168;-71
2021/03/21 09:26:38;;;;;;;19.10;9.93;;;;;;;5.57;40.95;99184.93;1718627;83;21678;-72
2021/03/21 09:29:29;;;;;;;18.92;11.75;;;;;;;5.70;39.66;99192.13;1718727;83;21187;-70
2021/03/21 09:32:01;;;;;;;17.23;9.98;;;;;;;5.94;40.86;99171.10;1696785;83;21832;-69
2021/03/21 09:35:11;;;;;;;17.55;9.40;;;;;;;5.94;40.86;99171.10;1719545;83;21216;-69
2021/03/21 09:37:40;;;;;;;15.10;10.00;;;;;;;6.01;39.00;99179.72;1719284;83;21160;-69
2021/03/21 09:40:35;;;;;;;17.48;9.93;;;;;;;5.83;40.25;99177.77;1719653;83;21172;-69
2021/03/21 09:43:03;;;;;;;15.32;8.35;;;;;;;5.89;41.43;99167.09;1719777;83;21081;-71
2021/03/21 09:45:31;;;;;;;14.20;9.05;;;;;;;6.25;40.19;99159.20;1719419;83;21251;-70
2021/03/21 09:48:03;;;;;;;19.48;9.73;;;;;;;6.28;38.62;99168.15;1719621;83;21144;-69
2021/03/21 09:51:24;;;;;;;14.83;8.13;;;;;;;6.20;38.85;99160.64;1718731;83;21176;-73
2021/03/21 09:54:24;;;;;;;14.95;8.33;;;;;;;6.15;38.70;99152.55;1720352;83;21263;-83
2021/03/21 09:57:40;;;;;;;16.37;9.95;;;;;;;5.88;39.59;99155.91;1719634;82;21133;-75
2021/03/21 10:00:16;;;;;;;15.80;9.35;;;;;;;5.88;39.59;99155.91;1719370;83;21652;-83
2021/03/21 10:02:51;;;;;;;17.27;10.25;;;;;;;5.80;39.04;99164.18;1719468;83;21185;-77
2021/03/21 10:05:50;;;;;;;15.88;9.63;;;;;;;5.63;38.92;99148.91;1746377;82;20982;-72
2021/03/21 10:08:40;;;;;;;17.80;9.80;;;;;;;5.63;38.92;99148.91;1733069;82;21128;-71
2021/03/21 10:11:09;;;;;;;15.95;9.55;;;;;;;5.24;40.45;99146.41;1717158;82;21128;-71
2021/03/21 10:13:44;;;;;;;16.20;9.60;;;;;;;5.18;40.90;99129.36;1745929;82;22284;-71
2021/03/21 10:16:31;;;;;;;14.58;9.25;;;;;;;5.20;41.06;99125.77;1746033;82;21086;-71
2021/03/21 10:19:06;;;;;;;17.40;9.50;;;;;;;5.28;40.28;99137.37;1744949;82;21598;-72
2021/03/21 10:21:40;;;;;;;15.58;8.43;;;;;;;5.30;40.11;99120.75;1742586;82;21208;-72
2021/03/21 10:24:16;;;;;;;17.27;9.93;;;;;;;5.52;41.43;99116.92;1723496;82;21178;-72
2021/03/21 10:27:21;;;;;;;17.10;10.15;;;;;;;5.90;40.67;99107.41;1714237;82;21627;-72
2021/03/21 10:30:11;;;;;;;17.85;11.03;;;;;;;5.96;40.36;99117.94;1720420;82;21191;-73
2021/03/21 10:32:41;;;;;;;15.53;9.30;;;;;;;5.69;40.05;99109.63;1741364;82;21129;-73
2021/03/21 10:35:33;;;;;;;16.42;10.38;;;;;;;5.44;39.93;99102.61;1715910;83;21045;-72
2021/03/21 10:38:10;;;;;;;15.88;9.18;;;;;;;5.18;40.17;99103.51;1717282;82;21145;-72
2021/03/21 10:40:45;;;;;;;18.27;9.40;;;;;;;5.10;40.13;99094.63;1735920;82;21381;-71
2021/03/21 10:43:24;;;;;;;16.73;9.55;;;;;;;5.58;40.92;99104.05;1735928;82;21631;-70
2021/03/21 10:45:54;;;;;;;15.13;9.23;;;;;;;5.58;40.92;99104.05;1735854;82;21164;-71
2021/03/21 10:48:31;;;;;;;15.35;9.10;;;;;;;5.78;39.31;99098.29;1735879;82;21192;-73
2021/03/21 10:51:09;;;;;;;19.55;9.60;;;;;;;5.85;39.89;99072.85;1736100;82;21163;-71
2021/03/21 10:53:52;;;;;;;18.02;9.95;;;;;;;5.87;39.46;99080.73;1745614;82;21182;-72
2021/03/21 10:56:22;;;;;;;23.62;9.70;;;;;;;5.94;39.41;99062.13;1745885;82;21184;-72
2021/03/21 10:59:22;;;;;;;25.92;11.48;;;;;;;5.88;39.23;99055.11;1718910;82;21565;-72
2021/03/21 11:02:17;;;;;;;19.15;10.35;;;;;;;5.96;39.80;99056.64;1712121;83;38098;-72
2021/03/21 11:04:44;;;;;;;17.85;9.85;;;;;;;6.25;39.03;99051.53;1704736;83;21195;-72
2021/03/21 11:07:21;;;;;;;19.23;9.98;;;;;;;6.44;38.86;99063.16;1656135;83;21397;-72
2021/03/21 11:09:59;;;;;;;12.82;8.18;;;;;;;6.51;38.87;99060.84;1734520;82;21627;-72
2021/03/21 11:12:39;;;;;;;16.40;9.15;;;;;;;6.45;37.97;99072.15;1724208;82;21035;-72
2021/03/21 11:15:38;;;;;;;17.80;9.88;;;;;;;6.30;38.31;99054.17;1714561;83;21729;-72
2021/03/21 11:18:14;;;;;;;19.48;9.40;;;;;;;6.17;38.54;99041.31;1725911;82;21577;-72
2021/03/21 11:20:42;;;;;;;17.27;9.30;;;;;;;6.15;38.84;99047.06;1734668;81;21151;-71
2021/03/21 11:23:21;;;;;;;18.27;8.75;;;;;;;6.24;38.77;99045.83;1731455;82;21193;-72
2021/03/21 11:25:49;;;;;;;22.58;13.65;;;;;;;6.28;37.84;99038.11;1716386;82;21643;-72
2021/03/21 11:28:35;;;;;;;19.15;11.50;;;;;;;5.97;38.03;99012.49;1690136;83;21587;-72
2021/03/21 11:31:00;;;;;;;18.70;9.48;;;;;;;5.40;38.27;99016.38;1715595;82;21188;-73
2021/03/21 11:33:42;;;;;;;18.07;10.18;;;;;;;5.00;39.64;99019.94;1728089;82;21396;-72
2021/03/21 11:36:31;;;;;;;17.37;10.05;;;;;;;4.94;41.55;99033.34;1725005;82;21148;-71
2021/03/21 11:39:02;;;;;;;13.75;8.20;;;;;;;5.17;41.05;99001.20;1727685;82;21180;-72
2021/03/21 11:41:37;;;;;;;14.95;9.00;;;;;;;5.47;40.02;98995.84;1703705;82;21106;-72
2021/03/21 11:44:30;;;;;;;16.20;9.20;;;;;;;5.69;39.59;98993.88;1738190;82;21164;-72
2021/03/21 11:47:14;;;;;;;17.67;9.75;;;;;;;6.02;40.17;98989.80;1730672;82;21400;-72
2021/03/21 11:49:42;;;;;;;16.23;9.55;;;;;;;6.41;39.30;98992.06;1699420;82;21094;-72
2021/03/21 11:52:09;;;;;;;17.27;9.70;;;;;;;6.68;38.93;98967.53;1719896;82;21026;-71
2021/03/21 11:54:38;;;;;;;14.98;8.40;;;;;;;6.80;38.25;98995.66;1727220;82;21137;-72
2021/03/21 11:57:26;;;;;;;13.80;8.53;;;;;;;6.76;38.24;98971.47;1728261;82;21216;-74
2021/03/21 12:00:08;;;;;;;13.85;8.13;;;;;;;6.78;38.58;98977.43;1716477;83;22486;-72
2021/03/21 12:02:50;;;;;;;13.65;8.45;;;;;;;6.68;38.01;98958.54;1716421;83;21207;-70
2021/03/21 12:05:21;;;;;;;13.53;8.40;;;;;;;6.70;38.76;98942.67;1716577;83;21132;-71
2021/03/21 12:07:48;;;;;;;16.37;9.13;;;;;;;6.83;38.70;98954.13;1716540;83;21294;-71
2021/03/21 12:10:35;;;;;;;21.00;11.50;;;;;;;7.06;38.55;98950.88;1722227;82;21205;-72
2021/03/21 12:13:38;;;;;;;17.23;10.40;;;;;;;7.10;37.69;98936.31;1739767;82;21392;-72
2021/03/21 12:16:18;;;;;;;17.05;10.30;;;;;;;7.32;39.41;98941.56;1749848;82;21065;-72
2021/03/21 12:18:55;;;;;;;15.78;8.60;;;;;;;7.45;37.63;98942.07;1725903;81;21140;-73
2021/03/21 12:21:23;;;;;;;15.58;9.53;;;;;;;7.23;36.75;98934.11;1744658;82;21136;-72
2021/03/21 12:24:08;;;;;;;21.37;11.03;;;;;;;6.90;38.42;98943.05;1743638;82;21156;-73
2021/03/21 12:26:47;;;;;;;29.77;14.85;;;;;;;6.85;37.36;98921.89;1719268;83;21378;-74
2021/03/21 12:29:29;;;;;;;15.08;8.23;;;;;;;6.70;37.26;98930.41;1722356;82;21622;-73
2021/03/21 12:32:15;;;;;;;13.95;7.83;;;;;;;6.55;37.54;98913.24;1743136;82;21156;-73
2021/03/21 12:34:49;;;;;;;14.85;8.58;;;;;;;6.67;38.40;98919.55;1730312;82;21053;-72